Time;durP1;ratioP1;P1;durP2;ratioP2;P2;SDS_P1;SDS_P2;PMS_P1;PMS_P2;Temp;Humidity;BMP_temperature;BMP_pressure;BME280_temperature;BME280_humidity;BME280_pressure;Samples;Min_cycle;Max_cycle;Signal;HPM_P1;HPM_P2
2022/04/21 00:00:42;;;;;;;92.17;16.03;;;;;;;;;;4971577;28;20248;-53
2022/04/21 00:03:08;;;;;;;168.43;28.27;;;;;;;;;;4961494;28;20324;-53
2022/04/21 00:05:34;;;;;;;232.40;39.77;;;;;;;;;;4966455;28;21895;-53
2022/04/21 00:08:01;;;;;;;104.27;18.30;;;;;;;;;;4972049;28;20252;-53
2022/04/21 00:10:27;;;;;;;72.20;12.93;;;;;;;;;;4970676;28;20250;-53
2022/04/21 00:12:54;;;;;;;78.10;14.17;;;;;;;;;;4975584;28;20441;-53
2022/04/21 00:15:21;;;;;;;120.03;20.90;;;;;;;;;;4973467;28;20252;-52
2022/04/21 00:17:47;;;;;;;68.83;12.67;;;;;;;;;;4970237;28;20226;-52
2022/04/21 00:20:13;;;;;;;63.53;11.03;;;;;;;;;;4967115;28;20257;-53
2022/04/21 00:25:24;;;;;;;122.63;21.30;;;;;;;;;;4966249;28;20292;-53
2022/04/21 00:27:50;;;;;;;91.63;16.27;;;;;;;;;;4970867;28;20219;-53
2022/04/21 00:30:17;;;;;;;135.47;23.30;;;;;;;;;;4970506;28;20214;-53
2022/04/21 00:32:43;;;;;;;69.57;12.57;;;;;;;;;;4968842;28;20222;-53
2022/04/21 00:35:13;;;;;;;112.20;19.50;;;;;;;;;;4971568;28;20257;-53
2022/04/21 00:37:48;;;;;;;124.87;21.73;;;;;;;;;;4965822;28;20708;-53
2022/04/21 00:40:15;;;;;;;91.20;16.43;;;;;;;;;;4967524;28;20249;-53
2022/04/21 00:42:41;;;;;;;92.73;16.47;;;;;;;;;;4965139;28;20233;-53
2022/04/21 00:45:07;;;;;;;146.47;25.43;;;;;;;;;;4964865;28;20224;-53
2022/04/21 00:47:33;;;;;;;81.90;14.97;;;;;;;;;;4975445;28;20582;-53
2022/04/21 00:50:00;;;;;;;97.47;17.17;;;;;;;;;;4973415;28;20686;-53
2022/04/21 00:52:26;;;;;;;92.93;16.50;;;;;;;;;;4972866;28;20222;-53
2022/04/21 00:54:52;;;;;;;91.37;16.30;;;;;;;;;;4974746;28;20221;-53
2022/04/21 00:57:19;;;;;;;118.17;20.50;;;;;;;;;;4968799;28;20263;-53
2022/04/21 00:59:46;;;;;;;150.77;25.80;;;;;;;;;;4972632;28;20324;-53
2022/04/21 01:04:57;;;;;;;126.27;21.93;;;;;;;;;;4973410;28;20710;-53
2022/04/21 01:07:23;;;;;;;79.03;14.03;;;;;;;;;;4970323;28;20269;-53
2022/04/21 01:09:49;;;;;;;88.67;15.73;;;;;;;;;;4979542;28;20617;-53
2022/04/21 01:12:15;;;;;;;92.07;16.40;;;;;;;;;;4975661;28;20213;-53
2022/04/21 01:14:42;;;;;;;102.50;18.20;;;;;;;;;;4967309;28;20732;-53
2022/04/21 01:17:09;;;;;;;66.60;12.10;;;;;;;;;;4970705;28;20236;-53
2022/04/21 01:19:35;;;;;;;75.33;13.60;;;;;;;;;;4967993;28;20994;-53
2022/04/21 01:22:01;;;;;;;124.43;21.27;;;;;;;;;;4970602;28;20325;-53
2022/04/21 01:24:27;;;;;;;62.13;11.47;;;;;;;;;;4975327;28;20221;-53
2022/04/21 01:26:54;;;;;;;62.97;11.37;;;;;;;;;;4975602;28;20221;-53
2022/04/21 01:29:20;;;;;;;71.13;12.53;;;;;;;;;;4970376;28;20733;-52
2022/04/21 01:31:46;;;;;;;93.87;16.67;;;;;;;;;;4973398;28;20190;-53
2022/04/21 01:34:12;;;;;;;126.60;21.03;;;;;;;;;;4970262;28;20210;-53
2022/04/21 01:41:08;;;;;;;119.37;20.43;;;;;;;;;;4976573;28;20758;-53
2022/04/21 01:42:16;;;;;;;97.30;16.93;;;;;;;;;;4970693;28;20263;-53
2022/04/21 01:44:43;;;;;;;97.83;17.30;;;;;;;;;;4963923;28;20590;-53
2022/04/21 01:47:09;;;;;;;109.27;18.53;;;;;;;;;;4973692;28;20205;-53
2022/04/21 01:49:35;;;;;;;85.43;15.03;;;;;;;;;;4971802;28;20708;-53
2022/04/21 01:52:01;;;;;;;102.53;17.50;;;;;;;;;;4974535;28;20209;-53
2022/04/21 01:54:27;;;;;;;108.10;18.50;;;;;;;;;;4964303;28;20309;-53
2022/04/21 01:56:53;;;;;;;58.40;10.70;;;;;;;;;;4975629;28;20228;-53
2022/04/21 01:59:19;;;;;;;75.27;12.97;;;;;;;;;;4964360;28;20178;-53
2022/04/21 02:01:44;;;;;;;61.50;10.73;;;;;;;;;;4975564;28;20233;-53
2022/04/21 02:04:10;;;;;;;138.23;24.13;;;;;;;;;;4971242;28;20577;-53
2022/04/21 02:06:36;;;;;;;70.80;12.30;;;;;;;;;;4971466;28;20230;-53
2022/04/21 02:09:02;;;;;;;112.60;18.63;;;;;;;;;;4970650;28;20217;-53
2022/04/21 02:11:29;;;;;;;85.90;15.00;;;;;;;;;;4969726;28;20186;-53
2022/04/21 02:13:55;;;;;;;67.50;11.90;;;;;;;;;;4975249;28;20221;-53
2022/04/21 02:16:21;;;;;;;105.97;18.50;;;;;;;;;;4979592;28;20221;-53
2022/04/21 02:18:47;;;;;;;115.17;19.70;;;;;;;;;;4977714;28;20213;-53
2022/04/21 02:21:13;;;;;;;87.73;15.53;;;;;;;;;;4970449;28;21176;-53
2022/04/21 02:23:39;;;;;;;77.60;13.33;;;;;;;;;;4972989;28;20560;-53
2022/04/21 02:26:05;;;;;;;72.20;12.47;;;;;;;;;;4979621;28;20273;-53
2022/04/21 02:28:31;;;;;;;79.43;14.07;;;;;;;;;;4972864;28;20225;-53
2022/04/21 02:30:57;;;;;;;66.17;11.77;;;;;;;;;;4972802;28;20619;-53
2022/04/21 02:33:23;;;;;;;88.47;15.20;;;;;;;;;;4968958;28;20732;-53
2022/04/21 02:35:49;;;;;;;107.13;18.33;;;;;;;;;;4971294;28;20245;-53
2022/04/21 02:38:15;;;;;;;92.90;16.20;;;;;;;;;;4970869;28;20824;-53
2022/04/21 02:40:41;;;;;;;80.67;14.50;;;;;;;;;;4966001;28;20622;-53
2022/04/21 02:43:08;;;;;;;106.53;18.33;;;;;;;;;;4970452;28;20240;-53
2022/04/21 02:45:35;;;;;;;100.53;17.03;;;;;;;;;;4972167;28;20217;-53
2022/04/21 02:48:01;;;;;;;87.93;15.00;;;;;;;;;;4970010;28;20236;-53
2022/04/21 02:50:27;;;;;;;110.77;18.93;;;;;;;;;;4961384;28;20186;-53
2022/04/21 02:52:53;;;;;;;84.13;14.83;;;;;;;;;;4974201;28;20186;-53
2022/04/21 02:58:04;;;;;;;136.53;23.10;;;;;;;;;;4974643;28;20236;-53
2022/04/21 03:00:30;;;;;;;89.13;15.80;;;;;;;;;;4973183;28;20673;-53
2022/04/21 03:02:56;;;;;;;124.47;21.47;;;;;;;;;;4967527;28;20241;-53
2022/04/21 03:05:22;;;;;;;82.03;14.77;;;;;;;;;;4967327;28;20198;-53
2022/04/21 03:07:48;;;;;;;79.70;13.93;;;;;;;;;;4979370;28;20205;-53
2022/04/21 03:10:14;;;;;;;92.23;16.43;;;;;;;;;;4967767;28;20319;-53
2022/04/21 03:12:40;;;;;;;116.30;19.90;;;;;;;;;;4970151;28;20218;-53
2022/04/21 03:15:10;;;;;;;151.70;25.53;;;;;;;;;;4964052;28;20225;-52
2022/04/21 03:17:36;;;;;;;94.20;16.77;;;;;;;;;;4969429;28;20255;-52
2022/04/21 03:20:02;;;;;;;74.90;13.73;;;;;;;;;;4970928;28;20638;-52
2022/04/21 03:25:15;;;;;;;40.63;7.50;;;;;;;;;;4973222;28;20239;-52
2022/04/21 03:27:43;;;;;;;127.63;21.60;;;;;;;;;;4968758;28;20659;-52
2022/04/21 03:30:09;;;;;;;97.97;16.87;;;;;;;;;;4973115;28;20300;-52
2022/04/21 03:32:36;;;;;;;52.07;9.87;;;;;;;;;;4977279;28;20277;-52
2022/04/21 03:35:02;;;;;;;118.67;19.90;;;;;;;;;;4967748;28;20178;-52
2022/04/21 03:37:28;;;;;;;120.70;20.57;;;;;;;;;;4971679;28;20272;-52
2022/04/21 03:39:54;;;;;;;127.00;20.93;;;;;;;;;;4976157;28;20221;-52
2022/04/21 03:42:24;;;;;;;66.67;11.83;;;;;;;;;;4973052;28;20273;-52
2022/04/21 03:44:51;;;;;;;85.13;15.03;;;;;;;;;;4964418;28;20217;-52
2022/04/21 03:47:17;;;;;;;43.47;8.53;;;;;;;;;;4970050;28;20229;-52
2022/04/21 03:49:43;;;;;;;84.90;15.00;;;;;;;;;;4968259;28;21272;-52
2022/04/21 03:52:12;;;;;;;133.47;22.83;;;;;;;;;;4973132;28;20226;-51
2022/04/21 03:54:39;;;;;;;57.93;10.57;;;;;;;;;;4969927;28;20213;-52
2022/04/21 03:57:06;;;;;;;58.83;10.77;;;;;;;;;;4979476;28;20224;-52
2022/04/21 03:59:32;;;;;;;30.80;5.97;;;;;;;;;;4970596;28;20468;-52
2022/04/21 04:02:02;;;;;;;86.17;15.00;;;;;;;;;;4974582;28;20215;-52
2022/04/21 04:04:28;;;;;;;88.60;15.63;;;;;;;;;;4972197;28;20242;-52
2022/04/21 04:12:29;;;;;;;113.20;19.63;;;;;;;;;;4967175;28;20248;-52
2022/04/21 04:14:55;;;;;;;119.77;20.87;;;;;;;;;;4970941;28;20225;-53
2022/04/21 04:17:21;;;;;;;49.53;9.20;;;;;;;;;;4972310;28;20221;-52
2022/04/21 04:19:47;;;;;;;89.80;15.90;;;;;;;;;;4972578;28;20265;-52
2022/04/21 04:22:14;;;;;;;44.53;8.63;;;;;;;;;;4977756;28;20224;-52
2022/04/21 04:24:40;;;;;;;80.17;14.60;;;;;;;;;;4973606;28;20359;-53
2022/04/21 04:27:06;;;;;;;80.53;14.77;;;;;;;;;;4972699;28;20229;-52
2022/04/21 04:29:32;;;;;;;79.33;15.20;;;;;;;;;;4964664;28;20181;-52
2022/04/21 04:32:00;;;;;;;129.23;22.83;;;;;;;;;;4968033;28;20281;-52
2022/04/21 04:34:26;;;;;;;65.83;12.27;;;;;;;;;;4967909;28;20229;-52
2022/04/21 04:36:52;;;;;;;47.77;9.03;;;;;;;;;;4973396;28;20221;-52
2022/04/21 04:39:19;;;;;;;52.67;9.90;;;;;;;;;;4970123;28;20217;-52
2022/04/21 04:44:30;;;;;;;49.67;9.80;;;;;;;;;;4974018;28;20621;-52
2022/04/21 04:46:56;;;;;;;59.13;11.03;;;;;;;;;;4972598;28;20197;-52
2022/04/21 04:49:23;;;;;;;104.20;18.47;;;;;;;;;;4966623;28;20284;-52
2022/04/21 04:51:48;;;;;;;58.90;10.83;;;;;;;;;;4971014;28;20561;-52
2022/04/21 04:54:15;;;;;;;125.67;22.43;;;;;;;;;;4965577;28;20248;-52
2022/04/21 04:56:42;;;;;;;90.60;16.43;;;;;;;;;;4975911;28;20239;-52
2022/04/21 04:59:08;;;;;;;76.37;13.60;;;;;;;;;;4968617;28;20266;-52
2022/04/21 05:01:41;;;;;;;72.40;13.03;;;;;;;;;;4967187;28;20693;-52
2022/04/21 05:04:07;;;;;;;94.23;17.30;;;;;;;;;;4966162;28;20264;-52
2022/04/21 05:06:40;;;;;;;65.80;12.43;;;;;;;;;;4970160;28;20229;-52
2022/04/21 05:09:07;;;;;;;73.87;13.53;;;;;;;;;;4975074;28;20228;-52
2022/04/21 05:11:36;;;;;;;75.87;14.33;;;;;;;;;;4975595;28;20430;-52
2022/04/21 05:14:02;;;;;;;74.97;13.60;;;;;;;;;;4970051;28;20201;-52
2022/04/21 05:16:28;;;;;;;158.67;28.50;;;;;;;;;;4960158;28;20598;-53
2022/04/21 05:18:55;;;;;;;80.63;15.07;;;;;;;;;;4970825;28;20709;-52
2022/04/21 05:21:21;;;;;;;59.67;11.27;;;;;;;;;;4973596;28;20209;-52
2022/04/21 05:23:47;;;;;;;60.53;11.33;;;;;;;;;;4970604;28;20572;-52
2022/04/21 05:26:15;;;;;;;55.53;10.67;;;;;;;;;;4970848;28;20209;-53
2022/04/21 05:28:41;;;;;;;70.10;13.37;;;;;;;;;;4973889;28;20233;-52
2022/04/21 05:31:07;;;;;;;49.80;9.63;;;;;;;;;;4970887;28;20214;-52
2022/04/21 05:33:35;;;;;;;48.00;9.60;;;;;;;;;;4969157;28;20962;-53
2022/04/21 05:36:01;;;;;;;140.67;24.77;;;;;;;;;;4965140;28;20225;-52
2022/04/21 05:38:28;;;;;;;54.23;10.53;;;;;;;;;;4984961;28;20674;-54
2022/04/21 05:40:54;;;;;;;31.73;6.43;;;;;;;;;;4993485;28;20228;-54
2022/04/21 05:43:21;;;;;;;41.97;8.03;;;;;;;;;;4986913;28;20603;-54
2022/04/21 05:45:48;;;;;;;70.80;13.07;;;;;;;;;;4985956;28;20213;-54
2022/04/21 05:48:14;;;;;;;74.20;13.57;;;;;;;;;;4990568;28;20682;-54
2022/04/21 05:50:42;;;;;;;80.33;14.57;;;;;;;;;;4986909;28;20233;-54
2022/04/21 05:53:11;;;;;;;60.87;11.13;;;;;;;;;;4987856;28;20600;-54
2022/04/21 05:55:37;;;;;;;47.03;9.20;;;;;;;;;;4984312;28;20269;-54
2022/04/21 05:58:03;;;;;;;25.80;5.10;;;;;;;;;;4986607;28;20749;-54
2022/04/21 06:00:29;;;;;;;53.47;10.20;;;;;;;;;;4993853;28;20222;-54
2022/04/21 06:02:55;;;;;;;60.30;11.33;;;;;;;;;;4993501;28;20220;-54
2022/04/21 06:05:21;;;;;;;44.00;8.37;;;;;;;;;;4993683;28;20265;-53
2022/04/21 06:07:47;;;;;;;36.43;7.00;;;;;;;;;;4993710;28;20200;-53
2022/04/21 06:10:13;;;;;;;57.17;10.60;;;;;;;;;;4993604;28;20249;-53
2022/04/21 06:12:39;;;;;;;53.90;9.90;;;;;;;;;;4991395;28;20571;-53
2022/04/21 06:15:05;;;;;;;86.40;15.40;;;;;;;;;;4990912;28;20752;-54
2022/04/21 06:17:31;;;;;;;78.57;14.27;;;;;;;;;;4991747;28;20202;-54
2022/04/21 06:19:57;;;;;;;88.90;16.17;;;;;;;;;;4991840;28;20193;-53
2022/04/21 06:22:23;;;;;;;41.30;7.80;;;;;;;;;;4990791;28;20741;-54
2022/04/21 06:24:49;;;;;;;73.90;13.03;;;;;;;;;;4986851;28;20210;-53
2022/04/21 06:27:15;;;;;;;111.93;19.47;;;;;;;;;;4974588;28;20220;-52
2022/04/21 06:29:41;;;;;;;123.63;20.87;;;;;;;;;;4974753;28;20220;-53
2022/04/21 06:32:07;;;;;;;187.23;29.93;;;;;;;;;;4972073;28;20275;-53
2022/04/21 06:34:33;;;;;;;129.33;22.03;;;;;;;;;;4972705;28;20221;-53
2022/04/21 06:37:02;;;;;;;108.63;18.63;;;;;;;;;;4972182;28;20229;-53
2022/04/21 06:39:28;;;;;;;137.83;22.77;;;;;;;;;;4975307;28;20975;-53
2022/04/21 06:41:54;;;;;;;184.70;32.77;;;;;;;;;;4971636;28;20224;-52
2022/04/21 06:49:49;;;;;;;77.57;13.73;;;;;;;;;;4979585;28;20242;-53
2022/04/21 06:52:15;;;;;;;101.73;16.73;;;;;;;;;;4974692;28;20226;-53
2022/04/21 06:54:41;;;;;;;74.23;13.47;;;;;;;;;;4988144;28;20214;-53
2022/04/21 06:57:07;;;;;;;85.07;15.27;;;;;;;;;;4990220;28;20260;-53
2022/04/21 06:59:33;;;;;;;97.87;17.63;;;;;;;;;;4990009;28;20268;-53
2022/04/21 07:01:59;;;;;;;72.27;13.17;;;;;;;;;;4992498;28;20205;-53
2022/04/21 07:04:27;;;;;;;66.30;12.10;;;;;;;;;;5001342;28;20217;-53
2022/04/21 07:06:53;;;;;;;210.37;38.97;;;;;;;;;;4977647;28;20222;-52
2022/04/21 07:09:19;;;;;;;87.67;15.87;;;;;;;;;;4972511;28;20555;-53
2022/04/21 07:11:45;;;;;;;107.40;18.97;;;;;;;;;;4971134;28;20214;-52
2022/04/21 07:14:12;;;;;;;95.53;16.43;;;;;;;;;;4972555;28;20190;-52
2022/04/21 07:16:37;;;;;;;64.03;11.67;;;;;;;;;;4986217;28;20227;-53
2022/04/21 07:19:03;;;;;;;75.13;13.73;;;;;;;;;;4990751;28;20300;-53
2022/04/21 07:21:29;;;;;;;80.53;14.60;;;;;;;;;;4990431;28;20244;-53
2022/04/21 07:23:55;;;;;;;86.60;15.80;;;;;;;;;;4986188;28;20217;-54
2022/04/21 07:26:22;;;;;;;77.30;14.00;;;;;;;;;;4981908;28;20407;-53
2022/04/21 07:28:47;;;;;;;46.67;9.00;;;;;;;;;;4986338;28;20185;-51
2022/04/21 07:31:13;;;;;;;55.73;10.63;;;;;;;;;;4990576;28;20229;-52
2022/04/21 07:33:39;;;;;;;77.93;14.43;;;;;;;;;;4985872;28;20243;-52
2022/04/21 07:36:05;;;;;;;60.97;11.07;;;;;;;;;;4973271;28;20218;-52
2022/04/21 07:38:34;;;;;;;108.57;19.93;;;;;;;;;;4990660;28;20192;-52
2022/04/21 07:41:00;;;;;;;29.90;6.13;;;;;;;;;;5002733;28;20213;-51
2022/04/21 07:43:26;;;;;;;47.00;9.00;;;;;;;;;;4990176;28;20572;-52
2022/04/21 07:45:52;;;;;;;70.27;13.20;;;;;;;;;;4990023;28;20305;-52
2022/04/21 07:48:18;;;;;;;59.87;10.83;;;;;;;;;;4989935;28;20747;-52
2022/04/21 07:50:44;;;;;;;90.20;16.27;;;;;;;;;;4989501;28;20237;-53
2022/04/21 07:53:13;;;;;;;84.33;15.70;;;;;;;;;;4989288;28;20182;-54
2022/04/21 07:55:39;;;;;;;78.00;14.40;;;;;;;;;;4989138;28;20245;-53
2022/04/21 07:58:06;;;;;;;72.13;13.13;;;;;;;;;;4989276;28;20591;-53
2022/04/21 08:00:36;;;;;;;93.60;17.57;;;;;;;;;;4984548;28;20220;-54
2022/04/21 08:03:02;;;;;;;66.80;12.90;;;;;;;;;;4981913;28;20233;-54
2022/04/21 08:05:28;;;;;;;75.13;14.33;;;;;;;;;;4985250;28;20204;-53
2022/04/21 08:07:54;;;;;;;60.10;11.63;;;;;;;;;;4980606;28;20226;-54
2022/04/21 08:10:20;;;;;;;90.93;16.73;;;;;;;;;;4985760;28;20241;-54
2022/04/21 08:12:47;;;;;;;56.97;11.00;;;;;;;;;;4981951;28;20225;-54
2022/04/21 08:15:23;;;;;;;77.90;14.67;;;;;;;;;;4991439;28;20272;-54
2022/04/21 08:17:49;;;;;;;72.17;13.37;;;;;;;;;;4983725;28;20252;-54
2022/04/21 08:20:15;;;;;;;91.27;16.90;;;;;;;;;;4984212;28;20899;-54
2022/04/21 08:22:41;;;;;;;58.97;11.30;;;;;;;;;;4984068;28;20232;-54
2022/04/21 08:33:22;;;;;;;82.87;14.93;;;;;;;;;;4985500;28;20592;-54
2022/04/21 08:35:49;;;;;;;74.63;14.00;;;;;;;;;;4986996;28;20632;-53
2022/04/21 08:38:16;;;;;;;61.90;11.67;;;;;;;;;;4989428;28;20181;-54
2022/04/21 08:40:53;;;;;;;78.33;15.03;;;;;;;;;;4990998;28;20694;-53
2022/04/21 08:43:19;;;;;;;101.43;18.70;;;;;;;;;;4986954;28;20255;-54
2022/04/21 08:45:45;;;;;;;83.70;15.53;;;;;;;;;;4981878;28;20217;-54
2022/04/21 08:48:12;;;;;;;70.90;13.27;;;;;;;;;;4994689;28;20618;-54
2022/04/21 08:50:39;;;;;;;70.23;13.83;;;;;;;;;;4981151;28;20256;-53
2022/04/21 08:53:06;;;;;;;88.13;17.93;;;;;;;;;;4987488;28;20201;-54
2022/04/21 08:55:32;;;;;;;78.50;15.67;;;;;;;;;;4990851;28;20694;-54
2022/04/21 08:57:59;;;;;;;74.17;14.43;;;;;;;;;;4975527;28;20485;-54
2022/04/21 09:00:25;;;;;;;68.33;13.77;;;;;;;;;;4982174;28;20217;-54
2022/04/21 09:02:51;;;;;;;81.73;16.43;;;;;;;;;;4986714;28;20227;-54
2022/04/21 09:05:17;;;;;;;86.70;16.67;;;;;;;;;;4989027;28;20180;-54
2022/04/21 09:07:46;;;;;;;66.10;12.70;;;;;;;;;;4988853;28;20232;-54
2022/04/21 09:10:13;;;;;;;84.07;16.30;;;;;;;;;;4988117;28;20213;-54
2022/04/21 09:12:55;;;;;;;85.60;16.37;;;;;;;;;;4990411;28;20205;-53
2022/04/21 09:15:21;;;;;;;54.70;10.53;;;;;;;;;;4992460;28;20291;-54
2022/04/21 09:17:51;;;;;;;54.33;10.83;;;;;;;;;;4988162;28;20781;-53
2022/04/21 09:20:18;;;;;;;46.70;9.60;;;;;;;;;;4994496;28;20519;-54
2022/04/21 09:22:49;;;;;;;66.83;13.03;;;;;;;;;;5014280;23;20374;-66
2022/04/21 09:25:15;;;;;;;56.70;11.03;;;;;;;;;;4981389;28;20205;-67
2022/04/21 09:27:42;;;;;;;66.63;13.50;;;;;;;;;;4979245;28;20297;-65
2022/04/21 09:30:10;;;;;;;109.43;23.73;;;;;;;;;;4957174;28;20224;-65
2022/04/21 09:32:37;;;;;;;101.70;19.17;;;;;;;;;;4944314;28;20174;-66
2022/04/21 09:35:04;;;;;;;191.60;39.90;;;;;;;;;;4954540;28;20719;-67
2022/04/21 09:37:30;;;;;;;101.57;20.47;;;;;;;;;;4956183;28;20211;-67
2022/04/21 09:39:56;;;;;;;134.97;27.50;;;;;;;;;;4957554;28;20251;-65
2022/04/21 09:42:28;;;;;;;79.70;15.77;;;;;;;;;;4958215;28;20320;-67
2022/04/21 09:47:53;;;;;;;104.80;20.03;;;;;;;;;;4954962;28;20229;-67
2022/04/21 09:50:20;;;;;;;146.57;27.90;;;;;;;;;;4963853;28;20206;-66
2022/04/21 09:52:55;;;;;;;79.63;15.90;;;;;;;;;;4963551;28;20226;-67
2022/04/21 09:55:27;;;;;;;100.20;19.60;;;;;;;;;;4960161;28;20252;-65
2022/04/21 09:58:04;;;;;;;160.87;30.67;;;;;;;;;;4953073;28;20210;-66
2022/04/21 10:00:30;;;;;;;157.20;30.30;;;;;;;;;;4948244;28;20230;-69
2022/04/21 10:02:57;;;;;;;157.90;32.47;;;;;;;;;;4948684;28;20230;-68
2022/04/21 10:05:25;;;;;;;141.30;26.80;;;;;;;;;;4956421;28;20196;-69
2022/04/21 10:07:51;;;;;;;90.90;17.93;;;;;;;;;;4961404;28;20248;-67
2022/04/21 10:10:17;;;;;;;112.53;21.57;;;;;;;;;;4948430;28;20221;-68
2022/04/21 10:12:43;;;;;;;139.20;26.87;;;;;;;;;;4936351;28;20233;-70
2022/04/21 10:15:10;;;;;;;177.63;37.47;;;;;;;;;;4953646;28;20213;-72
2022/04/21 10:17:36;;;;;;;127.57;24.80;;;;;;;;;;4957391;28;20314;-73
2022/04/21 10:20:03;;;;;;;147.73;30.63;;;;;;;;;;4956971;28;20237;-71
2022/04/21 10:22:32;;;;;;;70.33;13.67;;;;;;;;;;4934695;28;20231;-70
2022/04/21 10:24:58;;;;;;;159.07;30.63;;;;;;;;;;4935155;28;20648;-70
2022/04/21 10:27:36;;;;;;;85.77;16.63;;;;;;;;;;4956560;28;20217;-70
2022/04/21 10:30:09;;;;;;;160.90;33.37;;;;;;;;;;4953376;28;20222;-66
2022/04/21 10:32:52;;;;;;;63.10;12.77;;;;;;;;;;4944661;28;20276;-65
2022/04/21 10:35:39;;;;;;;141.63;26.10;;;;;;;;;;4938040;28;20209;-68
2022/04/21 10:38:13;;;;;;;109.43;22.13;;;;;;;;;;4944230;28;20230;-66
2022/04/21 10:40:56;;;;;;;59.43;11.93;;;;;;;;;;4961566;28;20264;-66
2022/04/21 10:43:22;;;;;;;117.53;22.90;;;;;;;;;;4963353;28;20896;-66
2022/04/21 10:46:04;;;;;;;63.67;12.87;;;;;;;;;;4961476;28;20237;-66
2022/04/21 10:48:43;;;;;;;71.90;14.77;;;;;;;;;;4956690;28;20880;-66
2022/04/21 10:51:09;;;;;;;95.67;19.67;;;;;;;;;;4963105;28;20218;-66
2022/04/21 10:59:31;;;;;;;111.87;21.87;;;;;;;;;;4950151;28;20257;-66
2022/04/21 11:02:10;;;;;;;140.27;27.23;;;;;;;;;;4936285;28;20190;-66
2022/04/21 11:04:36;;;;;;;77.13;14.67;;;;;;;;;;4965486;28;20233;-65
2022/04/21 11:07:20;;;;;;;114.90;22.90;;;;;;;;;;4960991;28;20221;-66
2022/04/21 11:09:48;;;;;;;145.10;27.87;;;;;;;;;;4954426;28;20305;-66
2022/04/21 11:12:16;;;;;;;81.07;15.07;;;;;;;;;;4961888;28;20218;-66
2022/04/21 11:14:42;;;;;;;65.77;12.57;;;;;;;;;;4961567;28;20245;-66
2022/04/21 11:17:09;;;;;;;133.13;26.37;;;;;;;;;;4965891;28;20182;-66
2022/04/21 11:19:36;;;;;;;89.73;17.67;;;;;;;;;;4944474;28;20228;-66
2022/04/21 11:22:04;;;;;;;185.17;36.27;;;;;;;;;;4939016;28;21214;-66
2022/04/21 11:24:49;;;;;;;64.77;12.97;;;;;;;;;;4961822;28;20731;-65
2022/04/21 11:27:15;;;;;;;82.23;16.07;;;;;;;;;;4962902;28;20213;-66
2022/04/21 11:29:41;;;;;;;45.23;9.50;;;;;;;;;;4956901;28;20722;-66
2022/04/21 11:32:07;;;;;;;121.60;24.50;;;;;;;;;;4949325;28;20266;-66
2022/04/21 11:34:34;;;;;;;59.50;12.23;;;;;;;;;;4961459;28;20245;-66
2022/04/21 11:37:02;;;;;;;73.53;16.10;;;;;;;;;;4948168;28;20870;-66
2022/04/21 11:39:29;;;;;;;60.00;12.07;;;;;;;;;;4963720;28;20786;-66
2022/04/21 11:41:56;;;;;;;162.90;32.97;;;;;;;;;;4961478;28;20268;-65
2022/04/21 11:44:22;;;;;;;76.17;15.50;;;;;;;;;;4959063;28;20202;-66
2022/04/21 11:46:49;;;;;;;80.20;16.13;;;;;;;;;;4963212;28;20179;-66
2022/04/21 11:49:15;;;;;;;64.77;13.43;;;;;;;;;;4962633;28;20214;-67
2022/04/21 11:51:42;;;;;;;104.03;20.77;;;;;;;;;;4953896;28;20225;-66
2022/04/21 11:54:09;;;;;;;90.72;19.48;;;;;;;;;;4962514;28;20218;-66
2022/04/21 11:56:35;;;;;;;89.47;17.95;;;;;;;;;;4945612;28;20224;-68
2022/04/21 11:59:08;;;;;;;103.07;23.08;;;;;;;;;;4941619;28;20285;-66
2022/04/21 12:07:09;;;;;;;136.90;28.70;;;;;;;;;;4956631;28;20290;-66
2022/04/21 12:09:40;;;;;;;80.57;16.67;;;;;;;;;;4944931;28;20218;-66
2022/04/21 12:12:08;;;;;;;171.40;33.55;;;;;;;;;;4955992;28;20246;-65
2022/04/21 12:14:34;;;;;;;170.93;33.70;;;;;;;;;;4950317;28;21026;-66
2022/04/21 12:17:06;;;;;;;196.88;40.08;;;;;;;;;;4955129;28;20194;-67
2022/04/21 12:19:34;;;;;;;151.02;31.15;;;;;;;;;;4955019;28;20264;-65
2022/04/21 12:22:02;;;;;;;176.43;37.23;;;;;;;;;;4955436;28;20956;-67
2022/04/21 12:24:32;;;;;;;85.25;17.52;;;;;;;;;;4963799;28;20735;-66
2022/04/21 12:26:59;;;;;;;107.85;25.02;;;;;;;;;;4964336;28;20755;-67
2022/04/21 12:29:27;;;;;;;110.28;22.92;;;;;;;;;;4957420;28;20183;-65
2022/04/21 12:31:55;;;;;;;148.32;31.77;;;;;;;;;;4955789;28;20206;-65
2022/04/21 12:34:22;;;;;;;81.35;16.65;;;;;;;;;;4956003;28;20221;-66
2022/04/21 12:36:51;;;;;;;102.43;19.88;;;;;;;;;;4955839;28;20211;-66
2022/04/21 12:39:18;;;;;;;119.75;24.48;;;;;;;;;;4963503;28;20699;-66
2022/04/21 12:41:44;;;;;;;64.10;13.45;;;;;;;;;;4950485;28;20248;-65
2022/04/21 12:44:11;;;;;;;135.55;28.75;;;;;;;;;;4958449;28;20183;-65
2022/04/21 12:46:43;;;;;;;106.37;20.37;;;;;;;;;;4954882;28;20214;-66
2022/04/21 12:49:09;;;;;;;198.40;39.33;;;;;;;;;;4933146;28;20214;-66
2022/04/21 12:51:35;;;;;;;130.23;26.77;;;;;;;;;;4943072;28;20376;-66
2022/04/21 12:54:01;;;;;;;172.52;34.38;;;;;;;;;;4930985;28;20214;-66
2022/04/21 12:56:39;;;;;;;74.97;16.52;;;;;;;;;;4951751;28;20190;-65
2022/04/21 12:59:05;;;;;;;233.88;51.10;;;;;;;;;;4941396;28;20193;-65
2022/04/21 13:01:31;;;;;;;111.55;22.08;;;;;;;;;;4951221;28;20229;-65
2022/04/21 13:04:00;;;;;;;124.80;25.58;;;;;;;;;;4932632;28;20226;-65
2022/04/21 13:06:29;;;;;;;77.28;15.88;;;;;;;;;;4957587;28;20222;-65
2022/04/21 13:08:58;;;;;;;142.77;29.52;;;;;;;;;;4953425;28;20333;-65
2022/04/21 13:11:24;;;;;;;67.30;15.80;;;;;;;;;;4954568;28;20217;-65
2022/04/21 13:13:52;;;;;;;85.03;19.65;;;;;;;;;;4958228;28;20198;-65
2022/04/21 13:16:19;;;;;;;224.57;53.95;;;;;;;;;;4952056;28;20218;-64
2022/04/21 13:18:45;;;;;;;83.53;19.35;;;;;;;;;;4951300;28;20629;-65
2022/04/21 13:23:56;;;;;;;180.38;46.30;;;;;;;;;;4951854;28;20232;-65
2022/04/21 13:26:28;;;;;;;130.98;32.05;;;;;;;;;;4947870;28;20286;-65
2022/04/21 13:28:54;;;;;;;97.28;23.38;;;;;;;;;;4948921;28;21607;-65
2022/04/21 13:34:05;;;;;;;101.85;31.42;;;;;;;;;;4948791;28;20224;-65
2022/04/21 13:36:31;;;;;;;68.78;19.38;;;;;;;;;;4949242;28;20221;-64
2022/04/21 13:38:58;;;;;;;227.98;64.28;;;;;;;;;;4949491;28;20435;-64
2022/04/21 13:41:26;;;;;;;146.05;42.65;;;;;;;;;;4942181;28;20210;-64
2022/04/21 13:43:51;;;;;;;129.77;36.60;;;;;;;;;;4952297;28;20210;-66
2022/04/21 13:46:17;;;;;;;116.25;32.75;;;;;;;;;;4930335;28;20268;-66
2022/04/21 13:48:44;;;;;;;127.43;34.72;;;;;;;;;;4947813;28;20217;-65
2022/04/21 13:51:10;;;;;;;205.38;60.65;;;;;;;;;;4937818;28;20743;-64
2022/04/21 13:53:36;;;;;;;86.55;25.27;;;;;;;;;;4946604;28;20277;-66
2022/04/21 13:56:06;;;;;;;238.15;64.80;;;;;;;;;;4933271;28;20265;-65
2022/04/21 13:58:32;;;;;;;169.10;48.65;;;;;;;;;;4950895;28;20309;-65
2022/04/21 14:00:58;;;;;;;157.55;44.95;;;;;;;;;;4953196;28;20258;-66
2022/04/21 14:03:24;;;;;;;138.73;34.67;;;;;;;;;;4948337;28;20229;-66
2022/04/21 14:05:50;;;;;;;131.75;32.60;;;;;;;;;;4950317;28;20222;-64
2022/04/21 14:08:16;;;;;;;116.85;33.53;;;;;;;;;;4951602;28;21298;-67
2022/04/21 14:10:42;;;;;;;118.28;36.25;;;;;;;;;;4957690;28;20226;-66
2022/04/21 14:13:08;;;;;;;190.30;86.28;;;;;;;;;;4937008;28;20301;-66
2022/04/21 14:15:34;;;;;;;182.77;104.40;;;;;;;;;;4954555;28;20599;-66
2022/04/21 14:18:00;;;;;;;211.70;89.55;;;;;;;;;;4923413;28;20644;-64
2022/04/21 14:20:26;;;;;;;269.73;151.93;;;;;;;;;;4947229;28;20210;-66
2022/04/21 14:22:52;;;;;;;204.00;123.55;;;;;;;;;;4959437;28;20753;-67
2022/04/21 14:25:19;;;;;;;296.48;152.00;;;;;;;;;;4956789;28;20214;-66
2022/04/21 14:27:45;;;;;;;178.43;94.68;;;;;;;;;;4957943;28;20244;-66
2022/04/21 14:30:11;;;;;;;246.18;120.35;;;;;;;;;;4935103;28;20944;-67
2022/04/21 14:32:37;;;;;;;135.73;92.40;;;;;;;;;;4957550;28;20552;-67
2022/04/21 14:35:03;;;;;;;153.65;97.28;;;;;;;;;;4960343;28;20269;-66
2022/04/21 14:45:43;;;;;;;94.35;49.97;;;;;;;;;;4957005;28;20225;-67
2022/04/21 14:48:09;;;;;;;180.73;81.88;;;;;;;;;;4960001;28;20210;-66
2022/04/21 14:50:35;;;;;;;108.07;54.53;;;;;;;;;;4935131;28;20210;-67
2022/04/21 14:53:01;;;;;;;147.98;42.20;;;;;;;;;;4958851;28;20348;-66
2022/04/21 14:55:27;;;;;;;116.85;31.65;;;;;;;;;;4956367;28;20218;-66
2022/04/21 14:57:53;;;;;;;90.82;24.95;;;;;;;;;;4960265;28;20221;-66
2022/04/21 15:00:19;;;;;;;270.67;76.00;;;;;;;;;;4937940;28;20219;-65
2022/04/21 15:02:45;;;;;;;104.18;30.17;;;;;;;;;;4960072;28;20982;-66
2022/04/21 15:05:11;;;;;;;114.95;37.08;;;;;;;;;;4963811;28;20199;-66
2022/04/21 15:07:37;;;;;;;114.03;57.35;;;;;;;;;;4944604;28;20900;-66
2022/04/21 15:10:04;;;;;;;123.68;73.97;;;;;;;;;;4958226;28;20300;-66
2022/04/21 15:12:30;;;;;;;83.65;48.83;;;;;;;;;;4960279;28;20238;-66
2022/04/21 15:14:56;;;;;;;91.20;37.08;;;;;;;;;;4961290;28;20308;-66
2022/04/21 15:17:22;;;;;;;106.90;36.42;;;;;;;;;;4961032;28;20199;-66